createdAt,value
2023-02-13T00:01:16.076Z,6.13
2023-02-13T00:03:43.710Z,4.50
2023-02-13T00:06:11.268Z,6.07
2023-02-13T00:08:38.799Z,6.30
2023-02-13T00:11:07.900Z,7.40
2023-02-13T00:13:36.018Z,6.20
2023-02-13T00:16:06.236Z,7.53
2023-02-13T00:18:36.354Z,7.07
2023-02-13T00:21:06.654Z,8.30
2023-02-13T00:23:35.551Z,8.40
2023-02-13T00:26:09.676Z,8.10
2023-02-13T00:28:37.529Z,6.00
2023-02-13T00:31:06.637Z,8.17
2023-02-13T00:33:34.552Z,5.60
2023-02-13T00:36:07.460Z,6.10
2023-02-13T00:38:35.476Z,6.10
2023-02-13T00:41:02.943Z,6.70
2023-02-13T00:43:33.183Z,5.47
2023-02-13T00:46:01.131Z,5.80
2023-02-13T00:48:30.513Z,7.27
2023-02-13T00:50:58.411Z,7.20
2023-02-13T00:53:27.117Z,8.00
2023-02-13T00:55:54.749Z,8.27
2023-02-13T00:58:23.213Z,8.40
2023-02-13T01:00:54.342Z,6.87
2023-02-13T01:03:23.432Z,6.73
2023-02-13T01:05:51.711Z,7.00
2023-02-13T01:08:20.850Z,6.30
2023-02-13T01:10:49.451Z,6.00
2023-02-13T01:13:19.302Z,5.40
2023-02-13T01:15:47.534Z,4.93
2023-02-13T01:18:17.959Z,5.90
2023-02-13T01:20:46.022Z,6.10
2023-02-13T01:23:13.940Z,6.87
2023-02-13T01:25:42.585Z,5.80
2023-02-13T01:28:10.164Z,7.93
2023-02-13T01:30:37.787Z,6.47
2023-02-13T01:33:05.365Z,6.97
2023-02-13T01:35:35.103Z,6.60
2023-02-13T01:38:02.831Z,6.37
2023-02-13T01:40:31.812Z,7.83
2023-02-13T01:43:01.559Z,7.20
2023-02-13T01:45:30.594Z,7.60
2023-02-13T01:48:00.508Z,7.90
2023-02-13T01:50:34.079Z,6.00
2023-02-13T01:53:12.989Z,6.00
2023-02-13T01:55:46.921Z,7.27
2023-02-13T01:58:18.484Z,9.20
2023-02-13T02:00:49.670Z,8.60
2023-02-13T02:03:20.414Z,6.37
2023-02-13T02:05:51.925Z,7.80
2023-02-13T02:08:21.143Z,7.50
2023-02-13T02:10:53.680Z,6.07
2023-02-13T02:13:22.909Z,6.60
2023-02-13T02:15:52.934Z,7.80
2023-02-13T02:18:22.581Z,8.47
2023-02-13T02:21:22.557Z,8.00
2023-02-13T02:24:41.595Z,8.67
2023-02-13T02:27:26.795Z,8.40
2023-02-13T02:30:27.224Z,7.70
2023-02-13T02:33:09.616Z,7.43
2023-02-13T02:35:47.431Z,6.17
2023-02-13T02:38:32.881Z,7.73
2023-02-13T02:41:09.635Z,7.33
2023-02-13T02:43:52.814Z,7.00
2023-02-13T02:46:28.436Z,7.97
2023-02-13T02:49:23.789Z,7.13
2023-02-13T02:51:58.661Z,8.40
2023-02-13T02:54:51.074Z,9.03
2023-02-13T02:57:25.539Z,8.40
2023-02-13T03:00:17.084Z,8.87
2023-02-13T03:03:02.449Z,7.60
2023-02-13T03:06:04.486Z,7.43
2023-02-13T03:08:49.943Z,8.27
2023-02-13T03:11:34.944Z,6.90
2023-02-13T03:14:07.175Z,7.90
2023-02-13T03:16:52.722Z,8.03
2023-02-13T03:19:47.044Z,6.73
2023-02-13T03:22:29.557Z,7.20
2023-02-13T03:25:11.600Z,7.90
2023-02-13T03:28:04.727Z,6.80
2023-02-13T03:30:42.770Z,6.67
2023-02-13T03:33:28.349Z,6.90
2023-02-13T03:36:23.224Z,7.50
2023-02-13T03:38:57.987Z,6.80
2023-02-13T03:41:31.167Z,8.93
2023-02-13T03:44:11.066Z,9.17
2023-02-13T03:46:43.747Z,10.20
2023-02-13T03:49:34.496Z,8.30
2023-02-13T03:52:06.569Z,8.33
2023-02-13T03:54:59.857Z,6.87
2023-02-13T03:57:47.656Z,9.00
2023-02-13T04:00:17.622Z,7.10
2023-02-13T04:02:56.476Z,7.60
2023-02-13T04:05:26.879Z,7.87
2023-02-13T04:07:54.383Z,5.30
2023-02-13T04:10:27.203Z,7.00
2023-02-13T04:13:01.847Z,7.70
2023-02-13T04:15:32.261Z,6.03
2023-02-13T04:18:08.182Z,9.20
2023-02-13T04:20:37.153Z,9.63
2023-02-13T04:23:09.409Z,8.50
2023-02-13T04:25:41.139Z,7.53
2023-02-13T04:28:09.901Z,9.10
2023-02-13T04:30:37.710Z,8.30
2023-02-13T04:33:05.355Z,7.53
2023-02-13T04:35:33.030Z,8.40
2023-02-13T04:38:00.508Z,9.20
2023-02-13T04:40:28.022Z,7.13
2023-02-13T04:42:57.278Z,8.60
2023-02-13T04:45:24.838Z,8.20
2023-02-13T04:47:53.058Z,9.57
2023-02-13T04:50:21.383Z,8.93
2023-02-13T04:52:49.050Z,8.50
2023-02-13T04:55:16.534Z,8.57
2023-02-13T04:57:44.020Z,7.97
2023-02-13T05:00:14.092Z,8.90
2023-02-13T05:02:41.571Z,8.77
2023-02-13T05:05:09.296Z,8.23
2023-02-13T05:07:36.751Z,7.13
2023-02-13T05:10:05.862Z,6.93
2023-02-13T05:12:33.319Z,8.70
2023-02-13T05:15:00.857Z,9.40
2023-02-13T05:17:30.022Z,9.47
2023-02-13T05:19:59.082Z,8.57
2023-02-13T05:22:44.261Z,7.03
2023-02-13T05:25:11.756Z,7.90
2023-02-13T05:27:39.275Z,7.80
2023-02-13T05:30:07.971Z,8.93
2023-02-13T05:32:36.782Z,6.70
2023-02-13T05:35:04.897Z,8.43
2023-02-13T05:37:32.722Z,8.93
2023-02-13T05:40:00.209Z,6.07
2023-02-13T05:42:27.982Z,7.83
2023-02-13T05:44:55.544Z,9.83
2023-02-13T05:47:23.035Z,7.17
2023-02-13T05:49:51.798Z,10.03
2023-02-13T05:52:19.273Z,8.60
2023-02-13T05:54:46.844Z,8.67
2023-02-13T05:57:14.282Z,6.40
2023-02-13T05:59:42.005Z,5.97
2023-02-13T06:02:09.577Z,9.33
2023-02-13T06:04:37.194Z,8.07
2023-02-13T06:07:05.974Z,8.60
2023-02-13T06:09:33.433Z,7.03
2023-02-13T06:12:00.936Z,8.07
2023-02-13T06:14:28.370Z,8.20
2023-02-13T06:16:55.831Z,8.40
2023-02-13T06:19:23.321Z,7.87
2023-02-13T06:21:50.774Z,8.50
2023-02-13T06:24:19.655Z,9.63
2023-02-13T06:26:47.100Z,8.40
2023-02-13T06:29:14.642Z,8.30
2023-02-13T06:31:42.220Z,7.37
2023-02-13T06:34:09.700Z,9.30
2023-02-13T06:36:38.375Z,10.20
2023-02-13T06:39:05.903Z,8.17
2023-02-13T06:41:34.702Z,8.13
2023-02-13T06:44:02.148Z,9.30
2023-02-13T06:46:29.669Z,7.50
2023-02-13T06:48:57.237Z,7.30
2023-02-13T06:51:24.705Z,9.33
2023-02-13T06:53:52.227Z,6.87
2023-02-13T06:56:19.685Z,7.30
2023-02-13T06:58:48.446Z,8.37
2023-02-13T07:01:16.020Z,8.63
2023-02-13T07:03:43.696Z,6.60
2023-02-13T07:06:11.172Z,8.30
2023-02-13T07:08:38.604Z,7.20
2023-02-13T07:11:06.112Z,7.77
2023-02-13T07:13:33.571Z,6.73
2023-02-13T07:16:02.914Z,7.57
2023-02-13T07:18:30.483Z,8.17
2023-02-13T07:20:58.975Z,6.20
2023-02-13T07:23:26.584Z,7.50
2023-02-13T07:25:54.040Z,7.30
2023-02-13T07:28:21.757Z,8.07
2023-02-13T07:30:49.284Z,7.77
2023-02-13T07:33:18.211Z,9.13
2023-02-13T07:35:48.051Z,7.40
2023-02-13T07:38:15.857Z,6.57
2023-02-13T07:40:43.413Z,7.90
2023-02-13T07:43:11.370Z,6.93
2023-02-13T07:45:39.428Z,7.43
2023-02-13T07:48:07.090Z,7.73
2023-02-13T07:50:35.845Z,6.80
2023-02-13T07:53:03.588Z,7.43
2023-02-13T07:55:32.578Z,7.33
2023-02-13T07:58:01.737Z,7.37
2023-02-13T08:00:29.402Z,9.10
2023-02-13T08:02:59.961Z,8.00
2023-02-13T08:05:27.485Z,7.67
2023-02-13T08:07:56.326Z,8.03
2023-02-13T08:10:41.844Z,8.27
2023-02-13T08:13:10.609Z,6.83
2023-02-13T08:15:38.186Z,7.70
2023-02-13T08:18:05.959Z,8.17
2023-02-13T08:20:33.754Z,7.00
2023-02-13T08:23:06.080Z,7.20
2023-02-13T08:25:33.964Z,9.17
2023-02-13T08:28:02.249Z,7.80
2023-02-13T08:30:29.918Z,8.20
2023-02-13T08:32:57.384Z,6.70
2023-02-13T08:35:26.995Z,5.70
2023-02-13T08:37:54.500Z,7.50
2023-02-13T08:40:24.630Z,6.50
2023-02-13T08:42:54.085Z,6.57
2023-02-13T08:45:22.182Z,6.20
2023-02-13T08:47:49.636Z,6.40
2023-02-13T08:50:17.388Z,6.07
2023-02-13T08:52:45.061Z,4.93
2023-02-13T08:55:12.504Z,5.73
2023-02-13T08:57:41.288Z,5.47
2023-02-13T09:00:09.761Z,5.40
2023-02-13T09:02:37.317Z,5.60
2023-02-13T09:05:05.050Z,5.00
2023-02-13T09:07:32.514Z,5.23
2023-02-13T09:10:00.016Z,6.20
2023-02-13T09:12:27.470Z,5.80
2023-02-13T09:14:56.215Z,4.80
2023-02-13T09:17:23.661Z,5.00
2023-02-13T09:19:51.107Z,5.17
2023-02-13T09:22:18.628Z,6.03
2023-02-13T09:24:46.075Z,6.00
2023-02-13T09:27:13.574Z,5.87
2023-02-13T09:29:41.038Z,5.40
2023-02-13T09:32:09.960Z,5.90
2023-02-13T09:34:37.501Z,4.60
2023-02-13T09:37:04.943Z,5.70
2023-02-13T09:39:32.400Z,6.40
2023-02-13T09:42:01.916Z,5.40
2023-02-13T09:44:34.662Z,5.17
2023-02-13T09:47:08.178Z,5.20
2023-02-13T09:49:42.850Z,5.07
2023-02-13T09:52:11.193Z,5.30
2023-02-13T09:54:38.986Z,5.47
2023-02-13T09:57:15.107Z,4.33
2023-02-13T09:59:51.015Z,5.60
2023-02-13T10:02:36.320Z,4.97
2023-02-13T10:05:18.778Z,5.70
2023-02-13T10:07:59.502Z,6.13
2023-02-13T10:10:35.010Z,6.53
2023-02-13T10:13:24.399Z,4.30
2023-02-13T10:16:01.221Z,5.40
2023-02-13T10:18:35.316Z,5.70
2023-02-13T10:21:06.885Z,5.23
2023-02-13T10:23:40.527Z,5.40
2023-02-13T10:26:13.460Z,5.97
2023-02-13T10:28:45.755Z,5.37
2023-02-13T10:31:16.733Z,4.90
2023-02-13T10:33:50.192Z,6.20
2023-02-13T10:36:21.954Z,5.10
2023-02-13T10:38:57.379Z,4.80
2023-02-13T10:41:31.001Z,4.30
2023-02-13T10:44:13.583Z,4.87
2023-02-13T10:46:52.365Z,5.17
2023-02-13T10:49:38.745Z,4.83
2023-02-13T10:52:18.474Z,6.10
2023-02-13T10:55:16.196Z,4.87
2023-02-13T10:58:03.718Z,4.83
2023-02-13T11:00:38.492Z,4.50
2023-02-13T11:03:06.543Z,5.17
2023-02-13T11:05:38.457Z,4.33
2023-02-13T11:08:18.139Z,5.30
2023-02-13T11:10:45.645Z,6.87
2023-02-13T11:13:19.138Z,4.50
2023-02-13T11:16:02.862Z,6.47
2023-02-13T11:18:34.033Z,5.23
2023-02-13T11:21:07.791Z,5.47
2023-02-13T11:23:44.336Z,5.90
2023-02-13T11:26:15.515Z,5.17
2023-02-13T11:28:50.777Z,5.70
2023-02-13T11:31:30.327Z,5.67
2023-02-13T11:33:59.392Z,5.57
2023-02-13T11:36:29.988Z,4.60
2023-02-13T11:39:01.546Z,5.37
2023-02-13T11:41:30.753Z,5.53
2023-02-13T11:44:02.149Z,5.00
2023-02-13T11:46:42.326Z,5.63
2023-02-13T11:49:18.293Z,5.10
2023-02-13T11:51:48.620Z,5.40
2023-02-13T11:54:28.480Z,5.37
2023-02-13T11:57:04.759Z,4.43
2023-02-13T11:59:39.964Z,5.40
2023-02-13T12:02:16.274Z,5.10
2023-02-13T12:04:44.087Z,5.10
2023-02-13T12:07:15.894Z,5.93
2023-02-13T12:09:46.318Z,5.10
2023-02-13T12:12:19.590Z,6.00
2023-02-13T12:14:47.801Z,6.30
2023-02-13T12:17:32.325Z,6.37
2023-02-13T12:20:00.961Z,5.40
2023-02-13T12:22:38.245Z,5.80
2023-02-13T12:25:33.751Z,6.73
2023-02-13T12:28:11.505Z,5.50
2023-02-13T12:31:19.842Z,5.43
2023-02-13T12:34:04.339Z,5.63
2023-02-13T12:36:43.777Z,6.73
2023-02-13T12:39:21.193Z,6.47
2023-02-13T12:42:02.597Z,6.10
2023-02-13T12:45:09.716Z,5.10
2023-02-13T12:47:44.544Z,5.97
2023-02-13T12:50:39.351Z,5.40
2023-02-13T12:53:21.360Z,6.50
2023-02-13T12:56:09.743Z,4.87
2023-02-13T12:59:01.292Z,6.63
2023-02-13T13:02:04.654Z,5.83
2023-02-13T13:04:43.833Z,5.93
2023-02-13T13:07:33.844Z,5.60
2023-02-13T13:10:21.212Z,5.50
2023-02-13T13:12:59.774Z,4.90
2023-02-13T13:15:36.028Z,6.30
2023-02-13T13:18:15.806Z,5.70
2023-02-13T13:21:15.518Z,5.20
2023-02-13T13:23:49.934Z,5.50
2023-02-13T13:26:26.642Z,5.37
2023-02-13T13:28:57.556Z,5.60
2023-02-13T13:31:28.900Z,6.60
2023-02-13T13:34:02.011Z,5.30
2023-02-13T13:36:41.047Z,5.03
2023-02-13T13:39:26.443Z,5.07
2023-02-13T13:42:02.384Z,3.97
2023-02-13T13:44:46.826Z,4.93
2023-02-13T13:47:26.970Z,3.80
2023-02-13T13:49:56.733Z,4.30
2023-02-13T13:52:27.581Z,4.17
2023-02-13T13:54:57.244Z,4.00
2023-02-13T13:57:25.330Z,4.03
2023-02-13T13:59:59.010Z,4.70
2023-02-13T14:02:42.605Z,3.27
2023-02-13T14:05:35.373Z,3.73
2023-02-13T14:08:05.017Z,5.00
2023-02-13T14:11:09.469Z,3.90
2023-02-13T14:13:39.486Z,4.27
2023-02-13T14:16:11.370Z,4.40
2023-02-13T14:18:47.739Z,3.80
2023-02-13T14:21:24.588Z,4.13
2023-02-13T14:23:53.605Z,3.57
2023-02-13T14:26:31.187Z,4.67
2023-02-13T14:29:31.088Z,4.80
2023-02-13T14:32:06.159Z,4.50
2023-02-13T14:34:37.549Z,4.37
2023-02-13T14:37:30.022Z,4.17
2023-02-13T14:40:29.428Z,4.80
2023-02-13T14:43:00.986Z,4.13
2023-02-13T14:45:33.181Z,4.37
2023-02-13T14:48:08.832Z,4.80
2023-02-13T14:50:46.702Z,4.47
2023-02-13T14:53:22.663Z,5.37
2023-02-13T14:55:57.900Z,4.50
2023-02-13T14:58:29.447Z,5.37
2023-02-13T15:01:03.435Z,5.13
2023-02-13T15:03:38.478Z,4.53
2023-02-13T15:06:14.847Z,4.23
2023-02-13T15:08:47.844Z,4.30
2023-02-13T15:11:39.524Z,4.20
2023-02-13T15:14:17.939Z,4.07
2023-02-13T15:16:48.634Z,4.63
2023-02-13T15:19:17.940Z,4.40
2023-02-13T15:21:53.853Z,4.07
2023-02-13T15:24:23.913Z,4.60
2023-02-13T15:26:55.556Z,5.00
2023-02-13T15:29:32.993Z,5.30
2023-02-13T15:32:19.514Z,4.67
2023-02-13T15:34:48.586Z,4.67
2023-02-13T15:37:24.079Z,4.83
2023-02-13T15:39:51.569Z,4.17
2023-02-13T15:42:19.031Z,4.10
2023-02-13T15:44:49.680Z,3.83
2023-02-13T15:47:21.656Z,4.33
2023-02-13T15:49:50.720Z,4.50
2023-02-13T15:52:24.727Z,4.13
2023-02-13T15:54:54.004Z,4.00
2023-02-13T15:57:23.335Z,5.20
2023-02-13T15:59:52.733Z,4.17
2023-02-13T16:02:23.430Z,3.70
2023-02-13T16:04:56.344Z,4.73
2023-02-13T16:07:25.128Z,3.80
2023-02-13T16:09:53.698Z,4.50
2023-02-13T16:12:24.452Z,4.50
2023-02-13T16:14:56.382Z,6.20
2023-02-13T16:17:29.853Z,4.40
2023-02-13T16:20:01.020Z,4.60
2023-02-13T16:22:34.483Z,4.00
2023-02-13T16:25:08.261Z,4.43
2023-02-13T16:27:36.171Z,4.40
2023-02-13T16:30:07.424Z,3.93
2023-02-13T16:32:38.648Z,4.53
2023-02-13T16:35:28.713Z,4.10
2023-02-13T16:38:01.701Z,3.70
2023-02-13T16:40:38.460Z,3.73
2023-02-13T16:43:34.493Z,4.73
2023-02-13T16:46:20.982Z,3.17
2023-02-13T16:48:59.326Z,3.33
2023-02-13T16:51:33.376Z,3.80
2023-02-13T16:54:05.803Z,4.33
2023-02-13T16:56:41.465Z,4.40
2023-02-13T16:59:36.176Z,3.87
2023-02-13T17:02:16.091Z,4.00
2023-02-13T17:04:45.002Z,3.77
2023-02-13T17:07:14.347Z,3.67
2023-02-13T17:09:43.172Z,4.00
2023-02-13T17:12:16.440Z,4.70
2023-02-13T17:14:44.062Z,3.97
2023-02-13T17:17:17.593Z,4.23
2023-02-13T17:19:45.476Z,3.53
2023-02-13T17:22:31.093Z,4.10
2023-02-13T17:25:00.468Z,4.20
2023-02-13T17:27:28.206Z,4.50
2023-02-13T17:29:55.682Z,4.63
2023-02-13T17:32:25.608Z,4.00
2023-02-13T17:34:54.942Z,4.33
2023-02-13T17:37:26.145Z,3.57
2023-02-13T17:39:54.462Z,3.20
2023-02-13T17:42:25.974Z,3.17
2023-02-13T17:44:54.720Z,3.60
2023-02-13T17:47:22.912Z,3.73
2023-02-13T17:49:50.694Z,3.70
2023-02-13T17:52:21.086Z,3.77
2023-02-13T17:54:49.683Z,5.73
2023-02-13T17:57:19.194Z,4.23
2023-02-13T17:59:56.336Z,3.60
2023-02-13T18:02:27.038Z,4.77
2023-02-13T18:04:54.540Z,3.80
2023-02-13T18:07:22.489Z,3.97
2023-02-13T18:09:50.108Z,3.63
2023-02-13T18:12:19.786Z,4.00
2023-02-13T18:14:48.993Z,3.40
2023-02-13T18:17:16.874Z,3.97
2023-02-13T18:19:44.504Z,4.57
2023-02-13T18:22:12.301Z,4.47
2023-02-13T18:24:43.032Z,4.43
2023-02-13T18:27:12.279Z,4.33
2023-02-13T18:29:40.205Z,4.47
2023-02-13T18:32:10.756Z,4.57
2023-02-13T18:34:39.245Z,4.00
2023-02-13T18:37:08.103Z,4.43
2023-02-13T18:39:35.899Z,4.33
2023-02-13T18:42:03.544Z,3.70
2023-02-13T18:44:31.930Z,4.70
2023-02-13T18:47:00.102Z,4.83
2023-02-13T18:49:29.052Z,4.30
2023-02-13T18:51:56.502Z,5.20
2023-02-13T18:54:24.080Z,4.10
2023-02-13T18:56:51.762Z,4.03
2023-02-13T18:59:19.342Z,4.80
2023-02-13T19:01:47.018Z,4.50
2023-02-13T19:04:14.580Z,4.47
2023-02-13T19:06:44.833Z,6.00
2023-02-13T19:09:13.135Z,5.77
2023-02-13T19:11:40.861Z,4.40
2023-02-13T19:14:08.828Z,4.33
2023-02-13T19:16:36.917Z,4.40
2023-02-13T19:19:06.410Z,3.90
2023-02-13T19:21:36.465Z,5.10
2023-02-13T19:24:08.618Z,4.43
2023-02-13T19:26:36.670Z,3.90
2023-02-13T19:29:04.687Z,6.47
2023-02-13T19:31:33.806Z,5.03
2023-02-13T19:34:01.361Z,4.47
2023-02-13T19:36:30.621Z,5.33
2023-02-13T19:38:59.575Z,4.90
2023-02-13T19:41:28.965Z,5.93
2023-02-13T19:44:00.527Z,5.03
2023-02-13T19:46:29.755Z,6.33
2023-02-13T19:48:59.018Z,5.07
2023-02-13T19:51:28.965Z,5.27
2023-02-13T19:53:58.318Z,5.50
2023-02-13T19:56:29.396Z,4.67
2023-02-13T19:58:57.626Z,6.27
2023-02-13T20:01:29.095Z,5.33
2023-02-13T20:03:57.201Z,4.63
2023-02-13T20:06:27.817Z,5.90
2023-02-13T20:09:01.605Z,5.77
2023-02-13T20:11:30.892Z,4.50
2023-02-13T20:14:00.876Z,5.10
2023-02-13T20:16:32.797Z,5.00
2023-02-13T20:19:03.558Z,6.40
2023-02-13T20:21:31.186Z,6.60
2023-02-13T20:23:58.808Z,4.93
2023-02-13T20:26:26.318Z,5.47
2023-02-13T20:28:57.131Z,5.23
2023-02-13T20:31:24.728Z,4.63
2023-02-13T20:33:53.371Z,5.60
2023-02-13T20:36:22.678Z,5.77
2023-02-13T20:38:52.897Z,5.33
2023-02-13T20:41:22.604Z,4.93
2023-02-13T20:43:50.421Z,4.77
2023-02-13T20:46:20.163Z,6.13
2023-02-13T20:48:48.875Z,5.27
2023-02-13T20:51:20.610Z,5.73
2023-02-13T20:53:49.806Z,5.63
2023-02-13T20:56:19.220Z,4.70
2023-02-13T20:58:49.796Z,5.33
2023-02-13T21:01:21.071Z,5.20
2023-02-13T21:03:53.431Z,5.80
2023-02-13T21:06:21.767Z,5.23
2023-02-13T21:08:49.841Z,5.53
2023-02-13T21:11:18.335Z,4.50
2023-02-13T21:13:46.190Z,5.53
2023-02-13T21:16:15.736Z,5.60
2023-02-13T21:18:45.366Z,5.07
2023-02-13T21:21:13.919Z,5.23
2023-02-13T21:23:41.505Z,5.07
2023-02-13T21:26:11.767Z,4.37
2023-02-13T21:28:40.786Z,5.60
2023-02-13T21:31:09.490Z,5.70
2023-02-13T21:33:37.140Z,4.57
2023-02-13T21:36:08.590Z,4.87
2023-02-13T21:38:37.503Z,4.40
2023-02-13T21:41:06.509Z,5.13
2023-02-13T21:43:37.535Z,5.33
2023-02-13T21:46:09.833Z,6.80
2023-02-13T21:48:37.635Z,5.73
2023-02-13T21:51:11.126Z,4.83
2023-02-13T21:53:38.958Z,5.37
2023-02-13T21:56:08.713Z,6.07
2023-02-13T21:58:37.914Z,4.80
2023-02-13T22:01:20.409Z,6.27
2023-02-13T22:03:51.900Z,4.80
2023-02-13T22:06:21.679Z,5.70
2023-02-13T22:08:51.306Z,6.20
2023-02-13T22:11:18.974Z,6.30
2023-02-13T22:13:46.499Z,5.00
2023-02-13T22:16:15.936Z,5.80
2023-02-13T22:18:45.506Z,6.43
2023-02-13T22:21:15.512Z,5.70
2023-02-13T22:23:45.781Z,6.13
2023-02-13T22:26:17.178Z,7.63
2023-02-13T22:28:44.737Z,5.37
2023-02-13T22:31:13.802Z,5.23
2023-02-13T22:33:42.746Z,5.37
2023-02-13T22:36:10.663Z,5.90
2023-02-13T22:38:39.637Z,5.60
2023-02-13T22:41:10.376Z,5.50
2023-02-13T22:43:39.168Z,6.17
2023-02-13T22:46:09.158Z,6.20
2023-02-13T22:48:37.205Z,5.60
2023-02-13T22:51:06.123Z,5.40
2023-02-13T22:53:33.919Z,5.50
2023-02-13T22:56:03.523Z,4.90
2023-02-13T22:58:32.609Z,5.60
2023-02-13T23:01:00.716Z,5.60
2023-02-13T23:03:28.868Z,5.43
2023-02-13T23:05:58.374Z,5.03
2023-02-13T23:08:25.936Z,6.30
2023-02-13T23:11:07.343Z,5.27
2023-02-13T23:13:39.355Z,6.00
2023-02-13T23:16:13.876Z,5.90
2023-02-13T23:18:41.014Z,4.33
2023-02-13T23:21:09.227Z,4.90
2023-02-13T23:23:38.403Z,5.40
2023-02-13T23:26:06.785Z,5.30
2023-02-13T23:28:36.086Z,6.30
2023-02-13T23:31:04.285Z,5.73
2023-02-13T23:33:32.420Z,5.50
2023-02-13T23:35:59.894Z,6.10
2023-02-13T23:38:27.435Z,6.20
2023-02-13T23:40:55.051Z,6.03
2023-02-13T23:43:22.759Z,4.47
2023-02-13T23:45:51.770Z,5.90
2023-02-13T23:48:19.234Z,6.43
2023-02-13T23:50:48.540Z,5.20
2023-02-13T23:53:16.066Z,5.30
2023-02-13T23:55:43.533Z,5.43
2023-02-13T23:58:11.022Z,5.50
